createdAt,value
2023-02-04T00:00:27.797Z,50.78
2023-02-04T00:02:55.705Z,50.32
2023-02-04T00:05:23.470Z,50.58
2023-02-04T00:07:51.230Z,50.42
2023-02-04T00:10:19.403Z,50.99
2023-02-04T00:12:47.325Z,49.69
2023-02-04T00:15:15.188Z,49.95
2023-02-04T00:17:43.029Z,49.98
2023-02-04T00:20:11.158Z,50.32
2023-02-04T00:22:38.940Z,50.28
2023-02-04T00:25:07.315Z,50.63
2023-02-04T00:27:35.093Z,50.52
2023-02-04T00:30:03.524Z,50.54
2023-02-04T00:32:31.480Z,50.23
2023-02-04T00:34:59.225Z,50.35
2023-02-04T00:37:27.179Z,50.66
2023-02-04T00:39:55.056Z,51.06
2023-02-04T00:42:22.979Z,50.63
2023-02-04T00:44:50.615Z,50.97
2023-02-04T00:47:18.451Z,51.31
2023-02-04T00:49:46.223Z,50.76
2023-02-04T00:52:14.040Z,51.22
2023-02-04T00:54:41.936Z,50.93
2023-02-04T00:57:09.836Z,51.72
2023-02-04T00:59:37.608Z,51.54
2023-02-04T01:02:05.530Z,50.40
2023-02-04T01:04:33.390Z,50.49
2023-02-04T01:07:01.077Z,51.49
2023-02-04T01:09:28.888Z,50.93
2023-02-04T01:11:56.703Z,51.01
2023-02-04T01:14:24.502Z,50.17
2023-02-04T01:16:52.193Z,50.87
2023-02-04T01:19:21.506Z,51.04
2023-02-04T01:21:49.437Z,50.35
2023-02-04T01:24:17.170Z,49.95
2023-02-04T01:27:03.130Z,50.21
2023-02-04T01:29:31.314Z,50.47
2023-02-04T01:31:59.479Z,50.80
2023-02-04T01:34:27.440Z,49.61
2023-02-04T01:36:55.105Z,49.61
2023-02-04T01:39:22.932Z,50.42
2023-02-04T01:41:50.767Z,49.58
2023-02-04T01:44:18.688Z,49.38
2023-02-04T01:46:46.507Z,49.98
2023-02-04T01:49:14.262Z,50.15
2023-02-04T01:51:42.080Z,50.08
2023-02-04T01:54:12.653Z,48.84
2023-02-04T01:56:40.832Z,49.78
2023-02-04T01:59:15.694Z,49.16
2023-02-04T02:01:53.257Z,49.09
2023-02-04T02:04:31.371Z,48.55
2023-02-04T02:07:04.297Z,48.92
2023-02-04T02:09:32.117Z,48.68
2023-02-04T02:11:59.925Z,48.79
2023-02-04T02:14:27.757Z,48.43
2023-02-04T02:16:55.684Z,49.26
2023-02-04T02:19:27.941Z,49.36
2023-02-04T02:22:17.823Z,49.58
2023-02-04T02:24:45.611Z,49.04
2023-02-04T02:27:13.822Z,49.44
2023-02-04T02:29:41.955Z,49.44
2023-02-04T02:32:11.383Z,49.70
2023-02-04T02:34:39.889Z,49.78
2023-02-04T02:37:09.408Z,49.69
2023-02-04T02:39:38.108Z,49.15
2023-02-04T02:42:05.770Z,49.64
2023-02-04T02:44:33.763Z,48.93
2023-02-04T02:47:01.449Z,48.62
2023-02-04T02:49:30.186Z,48.83
2023-02-04T02:51:58.023Z,47.59
2023-02-04T02:54:31.147Z,46.85
2023-02-04T02:57:02.353Z,46.99
2023-02-04T02:59:30.156Z,46.50
2023-02-04T03:02:00.528Z,46.16
2023-02-04T03:04:31.049Z,45.55
2023-02-04T03:06:58.833Z,45.50
2023-02-04T03:09:26.756Z,45.60
2023-02-04T03:11:54.774Z,45.90
2023-02-04T03:14:22.835Z,45.66
2023-02-04T03:16:50.589Z,45.60
2023-02-04T03:19:18.392Z,45.79
2023-02-04T03:21:46.177Z,46.18
2023-02-04T03:24:13.920Z,46.12
2023-02-04T03:26:41.761Z,46.43
2023-02-04T03:29:12.643Z,46.91
2023-02-04T03:31:40.486Z,46.29
2023-02-04T03:34:08.475Z,46.66
2023-02-04T03:36:36.987Z,46.96
2023-02-04T03:39:05.043Z,46.56
2023-02-04T03:41:32.878Z,46.37
2023-02-04T03:44:00.707Z,46.41
2023-02-04T03:46:29.184Z,46.43
2023-02-04T03:48:57.005Z,47.19
2023-02-04T03:51:25.026Z,47.11
2023-02-04T03:53:52.694Z,47.33
2023-02-04T03:56:20.459Z,47.26
2023-02-04T03:58:48.276Z,47.94
2023-02-04T04:01:16.037Z,47.13
2023-02-04T04:03:45.595Z,47.62
2023-02-04T04:06:13.515Z,46.90
2023-02-04T04:08:41.244Z,47.49
2023-02-04T04:11:09.040Z,47.03
2023-02-04T04:13:36.938Z,46.87
2023-02-04T04:16:05.413Z,46.78
2023-02-04T04:18:33.407Z,47.08
2023-02-04T04:21:01.164Z,46.16
2023-02-04T04:23:29.041Z,45.78
2023-02-04T04:25:56.898Z,45.84
2023-02-04T04:28:24.767Z,45.63
2023-02-04T04:30:52.752Z,45.17
2023-02-04T04:33:20.521Z,44.77
2023-02-04T04:35:48.247Z,44.93
2023-02-04T04:38:16.055Z,44.97
2023-02-04T04:40:43.792Z,44.22
2023-02-04T04:43:11.465Z,43.85
2023-02-04T04:45:39.194Z,43.56
2023-02-04T04:48:06.950Z,43.01
2023-02-04T04:50:34.948Z,42.92
2023-02-04T04:53:02.751Z,43.11
2023-02-04T04:55:31.026Z,42.94
2023-02-04T04:57:58.906Z,42.69
2023-02-04T05:00:26.757Z,42.69
2023-02-04T05:02:54.677Z,42.64
2023-02-04T05:05:22.420Z,43.00
2023-02-04T05:07:50.143Z,43.07
2023-02-04T05:10:18.483Z,43.47
2023-02-04T05:12:46.475Z,43.26
2023-02-04T05:15:14.352Z,43.81
2023-02-04T05:17:42.083Z,44.68
2023-02-04T05:20:10.584Z,43.91
2023-02-04T05:22:38.538Z,44.48
2023-02-04T05:25:06.713Z,44.28
2023-02-04T05:27:34.483Z,44.23
2023-02-04T05:30:02.234Z,44.19
2023-02-04T05:32:30.282Z,44.47
2023-02-04T05:34:58.038Z,44.82
2023-02-04T05:37:26.001Z,45.30
2023-02-04T05:39:53.853Z,45.28
2023-02-04T05:42:21.570Z,45.87
2023-02-04T05:44:49.546Z,45.86
2023-02-04T05:47:17.428Z,45.83
2023-02-04T05:49:45.253Z,45.90
2023-02-04T05:52:13.262Z,46.28
2023-02-04T05:54:41.179Z,45.89
2023-02-04T05:57:08.971Z,45.98
2023-02-04T05:59:36.876Z,46.28
2023-02-04T06:02:04.841Z,46.68
2023-02-04T06:04:32.733Z,46.99
2023-02-04T06:07:00.389Z,46.45
2023-02-04T06:09:28.227Z,46.76
2023-02-04T06:11:56.123Z,46.75
2023-02-04T06:14:24.141Z,46.30
2023-02-04T06:16:52.076Z,46.46
2023-02-04T06:19:19.942Z,46.67
2023-02-04T06:21:47.976Z,47.16
2023-02-04T06:24:15.633Z,46.38
2023-02-04T06:26:45.314Z,46.37
2023-02-04T06:29:13.247Z,46.29
2023-02-04T06:31:41.109Z,45.75
2023-02-04T06:34:09.079Z,45.97
2023-02-04T06:36:37.059Z,46.10
2023-02-04T06:39:04.873Z,45.80
2023-02-04T06:41:34.550Z,45.83
2023-02-04T06:44:02.394Z,45.92
2023-02-04T06:46:30.387Z,45.93
2023-02-04T06:48:58.230Z,45.71
2023-02-04T06:51:26.567Z,45.49
2023-02-04T06:53:54.392Z,45.57
2023-02-04T06:56:22.300Z,44.99
2023-02-04T06:58:49.991Z,45.56
2023-02-04T07:01:17.943Z,45.54
2023-02-04T07:03:45.755Z,45.14
2023-02-04T07:06:13.547Z,45.59
2023-02-04T07:08:41.432Z,46.17
2023-02-04T07:11:09.200Z,46.27
2023-02-04T07:13:36.999Z,46.02
2023-02-04T07:16:05.078Z,46.02
2023-02-04T07:18:32.952Z,46.56
2023-02-04T07:21:00.729Z,46.19
2023-02-04T07:23:29.130Z,46.55
2023-02-04T07:25:57.839Z,46.72
2023-02-04T07:28:26.093Z,46.99
2023-02-04T07:30:57.011Z,47.36
2023-02-04T07:33:25.048Z,47.12
2023-02-04T07:35:52.992Z,46.61
2023-02-04T07:38:20.870Z,46.89
2023-02-04T07:40:48.711Z,46.93
2023-02-04T07:43:16.804Z,47.09
2023-02-04T07:45:44.720Z,47.11
2023-02-04T07:48:12.543Z,46.96
2023-02-04T07:50:40.414Z,47.02
2023-02-04T07:53:08.417Z,47.56
2023-02-04T07:55:36.290Z,48.33
2023-02-04T07:58:04.317Z,47.86
2023-02-04T08:00:32.441Z,47.82
2023-02-04T08:03:00.592Z,48.38
2023-02-04T08:05:28.488Z,48.06
2023-02-04T08:07:56.586Z,48.05
2023-02-04T08:10:24.290Z,47.60
2023-02-04T08:12:52.229Z,47.85
2023-02-04T08:15:20.012Z,48.11
2023-02-04T08:17:47.812Z,47.96
2023-02-04T08:20:17.055Z,47.95
2023-02-04T08:22:45.178Z,48.15
2023-02-04T08:25:13.097Z,47.60
2023-02-04T08:27:40.976Z,46.99
2023-02-04T08:30:09.456Z,46.99
2023-02-04T08:32:37.361Z,47.11
2023-02-04T08:35:06.544Z,46.80
2023-02-04T08:37:34.329Z,46.72
2023-02-04T08:40:03.264Z,46.68
2023-02-04T08:42:31.281Z,46.54
2023-02-04T08:44:59.375Z,47.23
2023-02-04T08:47:27.225Z,47.11
2023-02-04T08:49:55.157Z,46.90
2023-02-04T08:52:23.230Z,47.06
2023-02-04T08:54:51.001Z,47.32
2023-02-04T08:57:18.944Z,47.20
2023-02-04T08:59:46.840Z,47.44
2023-02-04T09:02:14.895Z,47.16
2023-02-04T09:04:42.664Z,47.56
2023-02-04T09:07:11.046Z,47.71
2023-02-04T09:09:38.966Z,47.51
2023-02-04T09:12:06.726Z,47.61
2023-02-04T09:14:34.486Z,47.72
2023-02-04T09:17:02.487Z,47.93
2023-02-04T09:19:30.366Z,48.16
2023-02-04T09:21:58.083Z,48.27
2023-02-04T09:24:26.099Z,48.38
2023-02-04T09:26:54.083Z,48.60
2023-02-04T09:29:21.891Z,48.61
2023-02-04T09:31:49.856Z,49.34
2023-02-04T09:34:17.595Z,49.67
2023-02-04T09:36:45.523Z,50.31
2023-02-04T09:39:13.491Z,50.15
2023-02-04T09:41:41.684Z,50.10
2023-02-04T09:44:18.395Z,50.92
2023-02-04T09:46:49.117Z,50.88
2023-02-04T09:49:17.111Z,51.20
2023-02-04T09:51:45.355Z,51.72
2023-02-04T09:54:17.086Z,51.54
2023-02-04T09:56:44.975Z,52.13
2023-02-04T09:59:20.829Z,52.41
2023-02-04T10:01:55.513Z,52.44
2023-02-04T10:04:23.445Z,52.30
2023-02-04T10:06:51.238Z,52.31
2023-02-04T10:09:18.966Z,52.71
2023-02-04T10:11:47.888Z,52.88
2023-02-04T10:14:23.019Z,52.56
2023-02-04T10:17:09.184Z,53.03
2023-02-04T10:19:36.885Z,53.92
2023-02-04T10:22:08.181Z,53.78
2023-02-04T10:24:35.918Z,53.54
2023-02-04T10:27:11.038Z,53.22
2023-02-04T10:29:38.908Z,53.64
2023-02-04T10:32:06.757Z,53.20
2023-02-04T10:34:38.276Z,53.54
2023-02-04T10:37:26.276Z,53.19
2023-02-04T10:39:54.326Z,53.25
2023-02-04T10:42:29.883Z,52.92
2023-02-04T10:44:58.090Z,52.92
2023-02-04T10:47:29.612Z,52.88
2023-02-04T10:50:06.594Z,52.87
2023-02-04T10:52:39.935Z,52.69
2023-02-04T10:55:09.530Z,52.32
2023-02-04T10:57:39.677Z,52.39
2023-02-04T11:00:15.600Z,52.67
2023-02-04T11:03:04.888Z,53.09
2023-02-04T11:05:33.988Z,52.73
2023-02-04T11:08:02.283Z,53.59
2023-02-04T11:10:34.221Z,53.15
2023-02-04T11:13:05.906Z,53.26
2023-02-04T11:15:44.882Z,53.44
2023-02-04T11:18:21.684Z,53.17
2023-02-04T11:20:50.025Z,53.07
2023-02-04T11:23:27.835Z,53.73
2023-02-04T11:26:08.072Z,53.48
2023-02-04T11:28:48.074Z,52.75
2023-02-04T11:31:28.667Z,52.94
2023-02-04T11:34:10.927Z,53.06
2023-02-04T11:37:12.584Z,53.42
2023-02-04T11:39:44.064Z,53.57
2023-02-04T11:42:18.115Z,53.85
2023-02-04T11:44:59.753Z,54.65
2023-02-04T11:47:28.171Z,55.15
2023-02-04T11:50:00.608Z,54.50
2023-02-04T11:52:28.480Z,54.52
2023-02-04T11:54:58.345Z,54.25
2023-02-04T11:57:26.935Z,54.83
2023-02-04T11:59:55.204Z,53.83
2023-02-04T12:02:24.634Z,54.27
2023-02-04T12:05:10.145Z,54.74
2023-02-04T12:07:38.946Z,54.01
2023-02-04T12:10:18.914Z,54.31
2023-02-04T12:12:52.477Z,54.36
2023-02-04T12:15:24.908Z,54.15
2023-02-04T12:18:03.087Z,53.74
2023-02-04T12:20:30.994Z,54.53
2023-02-04T12:22:59.125Z,54.83
2023-02-04T12:25:30.530Z,54.68
2023-02-04T12:27:58.455Z,54.59
2023-02-04T12:30:26.710Z,55.31
2023-02-04T12:32:54.561Z,55.44
2023-02-04T12:35:22.400Z,55.17
2023-02-04T12:37:50.381Z,54.60
2023-02-04T12:40:19.625Z,55.23
2023-02-04T12:42:47.569Z,54.96
2023-02-04T12:45:16.097Z,54.92
2023-02-04T12:47:43.997Z,55.15
2023-02-04T12:50:13.431Z,54.95
2023-02-04T12:52:41.480Z,54.88
2023-02-04T12:55:09.475Z,54.77
2023-02-04T12:57:37.268Z,54.50
2023-02-04T13:00:05.725Z,54.85
2023-02-04T13:02:33.549Z,54.33
2023-02-04T13:05:02.345Z,54.00
2023-02-04T13:07:30.429Z,54.15
2023-02-04T13:09:58.995Z,54.02
2023-02-04T13:12:27.095Z,54.83
2023-02-04T13:14:54.889Z,54.76
2023-02-04T13:17:22.821Z,54.58
2023-02-04T13:19:50.538Z,54.51
2023-02-04T13:22:18.336Z,53.98
2023-02-04T13:24:46.225Z,53.70
2023-02-04T13:27:15.617Z,53.81
2023-02-04T13:29:43.404Z,53.85
2023-02-04T13:32:11.218Z,53.87
2023-02-04T13:34:39.115Z,54.45
2023-02-04T13:37:06.910Z,54.44
2023-02-04T13:39:34.705Z,54.11
2023-02-04T13:42:04.500Z,54.71
2023-02-04T13:44:33.736Z,54.97
2023-02-04T13:47:01.553Z,54.78
2023-02-04T13:49:29.318Z,53.68
2023-02-04T13:51:57.148Z,53.63
2023-02-04T13:54:25.041Z,53.99
2023-02-04T13:56:52.999Z,53.24
2023-02-04T13:59:21.168Z,52.88
2023-02-04T14:01:49.049Z,52.88
2023-02-04T14:04:17.232Z,53.19
2023-02-04T14:06:45.054Z,52.96
2023-02-04T14:09:13.032Z,52.71
2023-02-04T14:11:41.054Z,52.58
2023-02-04T14:14:09.147Z,51.86
2023-02-04T14:16:37.954Z,52.40
2023-02-04T14:19:06.795Z,51.42
2023-02-04T14:21:34.712Z,51.83
2023-02-04T14:24:02.544Z,52.41
2023-02-04T14:26:30.360Z,51.25
2023-02-04T14:28:58.261Z,51.39
2023-02-04T14:31:26.134Z,51.52
2023-02-04T14:33:54.189Z,51.62
2023-02-04T14:36:22.719Z,51.64
2023-02-04T14:38:51.689Z,52.17
2023-02-04T14:41:22.237Z,52.19
2023-02-04T14:43:50.061Z,52.08
2023-02-04T14:46:18.111Z,51.45
2023-02-04T14:48:45.989Z,52.58
2023-02-04T14:51:14.340Z,52.46
2023-02-04T14:53:46.127Z,52.16
2023-02-04T14:56:16.475Z,52.42
2023-02-04T14:58:44.389Z,52.53
2023-02-04T15:01:12.535Z,52.30
2023-02-04T15:03:40.519Z,51.77
2023-02-04T15:06:08.379Z,52.93
2023-02-04T15:08:36.545Z,52.15
2023-02-04T15:11:04.539Z,52.55
2023-02-04T15:13:32.431Z,52.88
2023-02-04T15:16:00.444Z,52.94
2023-02-04T15:18:28.547Z,53.25
2023-02-04T15:20:56.417Z,52.42
2023-02-04T15:23:24.310Z,52.37
2023-02-04T15:25:52.594Z,52.11
2023-02-04T15:28:20.359Z,52.74
2023-02-04T15:30:48.502Z,52.56
2023-02-04T15:33:17.172Z,53.39
2023-02-04T15:35:44.985Z,52.88
2023-02-04T15:38:12.959Z,52.73
2023-02-04T15:40:40.757Z,53.19
2023-02-04T15:43:08.743Z,53.02
2023-02-04T15:45:39.284Z,52.52
2023-02-04T15:48:07.469Z,51.89
2023-02-04T15:50:35.138Z,53.13
2023-02-04T15:53:03.161Z,52.84
2023-02-04T15:55:30.959Z,52.59
2023-02-04T15:57:58.715Z,52.97
2023-02-04T16:00:26.634Z,53.02
2023-02-04T16:02:54.366Z,52.39
2023-02-04T16:05:22.071Z,53.63
2023-02-04T16:07:49.990Z,53.19
2023-02-04T16:10:18.687Z,52.89
2023-02-04T16:12:47.824Z,52.75
2023-02-04T16:15:16.098Z,53.35
2023-02-04T16:17:44.072Z,53.28
2023-02-04T16:20:12.262Z,53.06
2023-02-04T16:22:39.977Z,53.33
2023-02-04T16:25:08.368Z,53.57
2023-02-04T16:27:36.195Z,52.82
2023-02-04T16:30:04.750Z,54.10
2023-02-04T16:32:34.213Z,53.66
2023-02-04T16:35:04.800Z,53.01
2023-02-04T16:37:33.086Z,53.31
2023-02-04T16:40:00.862Z,53.62
2023-02-04T16:42:29.984Z,52.96
2023-02-04T16:44:58.074Z,53.58
2023-02-04T16:47:26.032Z,53.40
2023-02-04T16:49:55.576Z,53.10
2023-02-04T16:52:23.556Z,54.06
2023-02-04T16:54:51.298Z,53.33
2023-02-04T16:57:19.062Z,53.80
2023-02-04T16:59:46.867Z,53.90
2023-02-04T17:02:14.878Z,53.43
2023-02-04T17:04:42.789Z,54.49
2023-02-04T17:07:10.764Z,54.15
2023-02-04T17:09:38.847Z,54.22
2023-02-04T17:12:06.784Z,54.64
2023-02-04T17:14:34.552Z,53.99
2023-02-04T17:17:02.397Z,55.23
2023-02-04T17:19:30.182Z,55.07
2023-02-04T17:21:57.991Z,54.59
2023-02-04T17:24:26.353Z,55.75
2023-02-04T17:26:54.204Z,55.85
2023-02-04T17:29:25.579Z,56.46
2023-02-04T17:31:53.974Z,56.98
2023-02-04T17:34:21.806Z,57.98
2023-02-04T17:36:49.688Z,57.18
2023-02-04T17:39:17.539Z,57.71
2023-02-04T17:41:45.358Z,57.13
2023-02-04T17:44:17.490Z,57.49
2023-02-04T17:46:45.295Z,57.02
2023-02-04T17:49:13.189Z,56.86
2023-02-04T17:51:40.982Z,57.42
2023-02-04T17:54:10.904Z,56.33
2023-02-04T17:56:38.673Z,56.52
2023-02-04T17:59:10.385Z,56.84
2023-02-04T18:01:38.617Z,56.93
2023-02-04T18:04:12.332Z,56.20
2023-02-04T18:06:40.202Z,56.18
2023-02-04T18:09:17.732Z,56.15
2023-02-04T18:11:45.532Z,55.58
2023-02-04T18:14:26.944Z,56.06
2023-02-04T18:16:57.236Z,56.06
2023-02-04T18:19:35.653Z,56.38
2023-02-04T18:22:15.769Z,56.55
2023-02-04T18:24:45.512Z,56.07
2023-02-04T18:27:23.906Z,56.74
2023-02-04T18:29:55.937Z,56.10
2023-02-04T18:32:44.747Z,56.28
2023-02-04T18:35:21.670Z,56.74
2023-02-04T18:37:50.094Z,56.75
2023-02-04T18:40:26.712Z,56.72
2023-02-04T18:43:22.190Z,55.77
2023-02-04T18:45:50.034Z,56.70
2023-02-04T18:48:20.863Z,56.47
2023-02-04T18:50:49.443Z,56.81
2023-02-04T18:53:26.034Z,56.61
2023-02-04T18:55:55.668Z,55.96
2023-02-04T18:58:36.928Z,56.76
2023-02-04T19:01:10.721Z,56.51
2023-02-04T19:03:46.551Z,56.39
2023-02-04T19:06:27.704Z,56.73
2023-02-04T19:09:10.478Z,56.56
2023-02-04T19:11:46.148Z,55.84
2023-02-04T19:14:19.417Z,56.21
2023-02-04T19:16:47.614Z,56.59
2023-02-04T19:19:43.795Z,55.97
2023-02-04T19:22:16.965Z,55.95
2023-02-04T19:24:45.088Z,55.70
2023-02-04T19:27:29.611Z,56.57
2023-02-04T19:30:00.112Z,55.71
2023-02-04T19:32:33.614Z,55.63
2023-02-04T19:35:10.785Z,56.21
2023-02-04T19:37:40.366Z,56.43
2023-02-04T19:40:26.274Z,56.23
2023-02-04T19:42:55.858Z,56.44
2023-02-04T19:45:28.345Z,55.07
2023-02-04T19:47:56.647Z,55.84
2023-02-04T19:50:33.756Z,55.37
2023-02-04T19:53:03.169Z,56.19
2023-02-04T19:55:54.174Z,56.22
2023-02-04T19:58:29.068Z,56.18
2023-02-04T20:01:00.797Z,55.14
2023-02-04T20:03:37.468Z,56.17
2023-02-04T20:06:27.821Z,55.24
2023-02-04T20:08:57.275Z,55.10
2023-02-04T20:11:30.994Z,55.58
2023-02-04T20:14:10.946Z,54.99
2023-02-04T20:17:05.441Z,54.57
2023-02-04T20:19:35.881Z,54.31
2023-02-04T20:22:18.991Z,54.56
2023-02-04T20:25:04.807Z,54.89
2023-02-04T20:27:40.060Z,53.76
2023-02-04T20:30:11.954Z,54.22
2023-02-04T20:32:44.564Z,54.38
2023-02-04T20:35:21.633Z,54.22
2023-02-04T20:37:54.289Z,53.35
2023-02-04T20:40:48.262Z,54.14
2023-02-04T20:43:21.174Z,53.80
2023-02-04T20:45:59.686Z,53.39
2023-02-04T20:48:27.705Z,53.25
2023-02-04T20:50:56.400Z,52.96
2023-02-04T20:53:59.380Z,53.32
2023-02-04T20:56:32.663Z,53.97
2023-02-04T20:59:12.706Z,53.60
2023-02-04T21:01:50.424Z,53.09
2023-02-04T21:04:37.441Z,53.43
2023-02-04T21:07:17.322Z,53.35
2023-02-04T21:09:48.018Z,52.94
2023-02-04T21:12:15.875Z,53.74
2023-02-04T21:14:43.766Z,53.79
2023-02-04T21:17:11.677Z,52.86
2023-02-04T21:19:39.542Z,52.54
2023-02-04T21:22:07.293Z,53.02
2023-02-04T21:24:35.252Z,52.73
2023-02-04T21:27:03.204Z,53.26
2023-02-04T21:29:31.105Z,52.93
2023-02-04T21:31:58.987Z,53.52
2023-02-04T21:34:26.737Z,52.83
2023-02-04T21:36:54.577Z,53.37
2023-02-04T21:39:22.640Z,52.75
2023-02-04T21:42:10.546Z,52.70
2023-02-04T21:44:38.552Z,53.24
2023-02-04T21:47:06.429Z,53.40
2023-02-04T21:49:34.249Z,53.27
2023-02-04T21:52:02.124Z,52.75
2023-02-04T21:54:29.943Z,52.69
2023-02-04T21:57:02.320Z,52.70
2023-02-04T21:59:32.932Z,52.79
2023-02-04T22:02:00.742Z,52.71
2023-02-04T22:04:28.648Z,52.04
2023-02-04T22:06:56.460Z,53.00
2023-02-04T22:09:24.236Z,52.15
2023-02-04T22:11:51.972Z,52.31
2023-02-04T22:14:38.044Z,52.20
2023-02-04T22:17:05.930Z,52.57
2023-02-04T22:19:33.787Z,52.82
2023-02-04T22:22:01.583Z,52.80
2023-02-04T22:24:29.404Z,51.92
2023-02-04T22:26:57.131Z,51.59
2023-02-04T22:29:29.144Z,51.83
2023-02-04T22:31:56.984Z,52.60
2023-02-04T22:34:25.831Z,51.70
2023-02-04T22:36:53.804Z,52.55
2023-02-04T22:39:21.694Z,52.87
2023-02-04T22:41:49.577Z,51.99
2023-02-04T22:44:17.434Z,53.03
2023-02-04T22:46:47.409Z,52.95
2023-02-04T22:49:15.348Z,52.04
2023-02-04T22:51:43.158Z,52.75
2023-02-04T22:54:11.701Z,53.00
2023-02-04T22:56:39.556Z,52.45
2023-02-04T22:59:07.197Z,52.54
2023-02-04T23:01:35.016Z,52.85
2023-02-04T23:04:02.922Z,53.13
2023-02-04T23:06:30.963Z,52.87
2023-02-04T23:08:58.705Z,52.14
2023-02-04T23:11:26.399Z,52.39
2023-02-04T23:13:54.639Z,51.95
2023-02-04T23:16:22.489Z,52.69
2023-02-04T23:18:50.288Z,52.18
2023-02-04T23:21:18.150Z,52.36
2023-02-04T23:23:45.893Z,52.39
2023-02-04T23:26:13.924Z,52.11
2023-02-04T23:28:42.185Z,52.03
2023-02-04T23:31:10.270Z,52.11
2023-02-04T23:33:38.134Z,52.57
2023-02-04T23:36:06.129Z,51.93
2023-02-04T23:38:33.935Z,51.52
2023-02-04T23:41:02.066Z,51.83
2023-02-04T23:43:30.016Z,51.88
2023-02-04T23:45:57.866Z,51.70
2023-02-04T23:48:25.803Z,51.65
2023-02-04T23:50:57.330Z,51.43
2023-02-04T23:53:25.326Z,52.32
2023-02-04T23:55:53.091Z,51.36
2023-02-04T23:58:21.070Z,51.63
